Time;durP1;ratioP1;P1;durP2;ratioP2;P2;SDS_P1;SDS_P2;PMS_P1;PMS_P2;Temp;Humidity;BMP_temperature;BMP_pressure;BME280_temperature;BME280_humidity;BME280_pressure;Samples;Min_cycle;Max_cycle;Signal;HPM_P1;HPM_P2
2022/09/27 00:01:05;;;;;;;;;;;;;;;;;;5051345;28;980;-76
2022/09/27 00:03:31;;;;;;;;;;;;;;;;;;5051014;28;1103;-78
2022/09/27 00:06:04;;;;;;;;;;;;;;;;;;5051320;28;1727;-76
2022/09/27 00:08:30;;;;;;;;;;;;;;;;;;5035712;28;1017;-76
2022/09/27 00:10:58;;;;;;;;;;;;;;;;;;5055239;28;1068;-76
2022/09/27 00:13:24;;;;;;;;;;;;;;;;;;5054941;28;1969;-76
2022/09/27 00:15:55;;;;;;;;;;;;;;;;;;5055220;28;1318;-75
2022/09/27 00:18:21;;;;;;;;;;;;;;;;;;5055172;28;960;-76
2022/09/27 00:20:47;;;;;;;;;;;;;;;;;;5055235;28;1075;-74
2022/09/27 00:23:15;;;;;;;;;;;;;;;;;;5054619;28;910;-76
2022/09/27 00:25:41;;;;;;;;;;;;;;;;;;5037210;28;1340;-76
2022/09/27 00:28:07;;;;;;;;;;;;;;;;;;5055067;28;1075;-78
2022/09/27 00:30:33;;;;;;;;;;;;;;;;;;5037414;28;1296;-77
2022/09/27 00:32:59;;;;;;;;;;;;;;;;;;5036557;28;1914;-77
2022/09/27 00:35:26;;;;;;;;;;;;;;;;;;5036944;28;1416;-77
2022/09/27 00:37:52;;;;;;;;;;;;;;;;;;5055146;28;1080;-77
2022/09/27 00:40:22;;;;;;;;;;;;;;;;;;5054750;28;972;-76
2022/09/27 00:42:49;;;;;;;;;;;;;;;;;;5036572;28;863;-76
2022/09/27 00:45:16;;;;;;;;;;;;;;;;;;5054580;28;1321;-75
2022/09/27 00:47:43;;;;;;;;;;;;;;;;;;5054911;28;822;-76
2022/09/27 00:50:12;;;;;;;;;;;;;;;;;;5036947;28;1377;-75
2022/09/27 00:52:41;;;;;;;;;;;;;;;;;;5036480;28;1348;-77
2022/09/27 00:55:08;;;;;;;;;;;;;;;;;;5036781;28;1922;-76
2022/09/27 00:57:36;;;;;;;;;;;;;;;;;;5036725;28;1408;-76
2022/09/27 01:00:06;;;;;;;;;;;;;;;;;;5037121;28;1373;-76
2022/09/27 01:02:32;;;;;;;;;;;;;;;;;;5054121;28;1208;-75
2022/09/27 01:04:58;;;;;;;;;;;;;;;;;;5036256;28;1311;-76
2022/09/27 01:07:24;;;;;;;;;;;;;;;;;;5036477;28;1183;-76
2022/09/27 01:09:51;;;;;;;;;;;;;;;;;;5036401;28;1045;-75
2022/09/27 01:12:19;;;;;;;;;;;;;;;;;;5036073;28;1367;-76
2022/09/27 01:14:51;;;;;;;;;;;;;;;;;;5036578;28;1914;-76
2022/09/27 01:17:25;;;;;;;;;;;;;;;;;;5054066;28;1119;-76
2022/09/27 01:20:02;;;;;;;;;;;;;;;;;;5053372;28;863;-75
2022/09/27 01:22:28;;;;;;;;;;;;;;;;;;5035907;28;1362;-76
2022/09/27 01:24:57;;;;;;;;;;;;;;;;;;5036229;28;1331;-76
2022/09/27 01:27:46;;;;;;;;;;;;;;;;;;5035820;28;1470;-75
2022/09/27 01:30:24;;;;;;;;;;;;;;;;;;5036398;28;1004;-76
2022/09/27 01:32:54;;;;;;;;;;;;;;;;;;5035776;28;1504;-75
2022/09/27 01:35:22;;;;;;;;;;;;;;;;;;5035918;28;1914;-75
2022/09/27 01:37:50;;;;;;;;;;;;;;;;;;5036167;28;1047;-76
2022/09/27 01:40:17;;;;;;;;;;;;;;;;;;5035791;28;1128;-76
2022/09/27 01:43:04;;;;;;;;;;;;;;;;;;5053700;28;692;-76
2022/09/27 01:45:36;;;;;;;;;;;;;;;;;;5033952;28;1484;-76
2022/09/27 01:48:13;;;;;;;;;;;;;;;;;;5035810;28;1190;-76
2022/09/27 01:50:49;;;;;;;;;;;;;;;;;;5053851;28;841;-76
2022/09/27 01:53:17;;;;;;;;;;;;;;;;;;5035398;28;1977;-77
2022/09/27 01:56:03;;;;;;;;;;;;;;;;;;5035569;28;1344;-76
2022/09/27 01:58:50;;;;;;;;;;;;;;;;;;5052937;28;1117;-75
2022/09/27 02:01:20;;;;;;;;;;;;;;;;;;5035334;28;1183;-75
2022/09/27 02:03:47;;;;;;;;;;;;;;;;;;5035436;28;1208;-76
2022/09/27 02:06:37;;;;;;;;;;;;;;;;;;5053160;28;1299;-76
2022/09/27 02:09:16;;;;;;;;;;;;;;;;;;5035311;28;1396;-76
2022/09/27 02:11:54;;;;;;;;;;;;;;;;;;5035222;28;1380;-76
2022/09/27 02:14:21;;;;;;;;;;;;;;;;;;5035256;28;1906;-76
2022/09/27 02:16:54;;;;;;;;;;;;;;;;;;5053252;28;1419;-77
2022/09/27 02:19:30;;;;;;;;;;;;;;;;;;5053161;28;822;-76
2022/09/27 02:21:59;;;;;;;;;;;;;;;;;;5034976;28;1393;-76
2022/09/27 02:24:29;;;;;;;;;;;;;;;;;;5035157;28;1199;-76
2022/09/27 02:26:57;;;;;;;;;;;;;;;;;;5035078;28;1479;-75
2022/09/27 02:29:23;;;;;;;;;;;;;;;;;;5035195;28;1276;-76
2022/09/27 02:31:53;;;;;;;;;;;;;;;;;;5034513;28;1191;-76
2022/09/27 02:34:21;;;;;;;;;;;;;;;;;;5034949;28;1914;-76
2022/09/27 02:36:48;;;;;;;;;;;;;;;;;;5035288;28;1407;-76
2022/09/27 02:39:14;;;;;;;;;;;;;;;;;;5034666;28;1309;-76
2022/09/27 02:41:40;;;;;;;;;;;;;;;;;;5034800;28;1351;-76
2022/09/27 02:44:07;;;;;;;;;;;;;;;;;;5034726;28;1463;-75
2022/09/27 02:46:41;;;;;;;;;;;;;;;;;;5034741;28;1436;-76
2022/09/27 02:49:19;;;;;;;;;;;;;;;;;;5034004;28;1976;-77
2022/09/27 02:51:59;;;;;;;;;;;;;;;;;;5034197;28;1305;-76
2022/09/27 02:54:26;;;;;;;;;;;;;;;;;;5034751;28;1918;-76
2022/09/27 02:57:15;;;;;;;;;;;;;;;;;;5051828;28;1713;-76
2022/09/27 03:00:05;;;;;;;;;;;;;;;;;;5052305;28;1244;-76
2022/09/27 03:02:51;;;;;;;;;;;;;;;;;;5034183;28;1317;-76
2022/09/27 03:05:35;;;;;;;;;;;;;;;;;;5034425;28;1415;-75
2022/09/27 03:08:01;;;;;;;;;;;;;;;;;;5039594;28;1903;-78
2022/09/27 03:10:28;;;;;;;;;;;;;;;;;;5035851;28;1464;-76
2022/09/27 03:12:55;;;;;;;;;;;;;;;;;;5041960;28;1282;-77
2022/09/27 03:15:21;;;;;;;;;;;;;;;;;;5051843;28;1913;-75
2022/09/27 03:17:59;;;;;;;;;;;;;;;;;;5052320;28;853;-74
2022/09/27 03:20:45;;;;;;;;;;;;;;;;;;5052253;28;652;-75
2022/09/27 03:23:16;;;;;;;;;;;;;;;;;;5050312;28;1156;-76
2022/09/27 03:25:42;;;;;;;;;;;;;;;;;;5050680;28;1328;-77
2022/09/27 03:28:11;;;;;;;;;;;;;;;;;;5052108;28;826;-75
2022/09/27 03:30:40;;;;;;;;;;;;;;;;;;5050822;28;1214;-76
2022/09/27 03:33:08;;;;;;;;;;;;;;;;;;5050050;28;1451;-75
2022/09/27 03:35:43;;;;;;;;;;;;;;;;;;5050424;28;1918;-77
2022/09/27 03:38:11;;;;;;;;;;;;;;;;;;5050628;28;1228;-76
2022/09/27 03:40:38;;;;;;;;;;;;;;;;;;5050596;28;1346;-74
2022/09/27 03:43:06;;;;;;;;;;;;;;;;;;5045358;28;1590;-76
2022/09/27 03:45:33;;;;;;;;;;;;;;;;;;5033862;28;1681;-76
2022/09/27 03:48:02;;;;;;;;;;;;;;;;;;5034115;28;1188;-74
2022/09/27 03:50:29;;;;;;;;;;;;;;;;;;5033703;28;1345;-76
2022/09/27 03:52:55;;;;;;;;;;;;;;;;;;5033580;28;1344;-75
2022/09/27 03:55:23;;;;;;;;;;;;;;;;;;5033103;28;1977;-76
2022/09/27 03:57:49;;;;;;;;;;;;;;;;;;5033888;28;1295;-78
2022/09/27 04:00:18;;;;;;;;;;;;;;;;;;5033668;28;1187;-76
2022/09/27 04:02:44;;;;;;;;;;;;;;;;;;5033410;28;854;-76
2022/09/27 04:05:22;;;;;;;;;;;;;;;;;;5051192;28;1419;-75
2022/09/27 04:07:49;;;;;;;;;;;;;;;;;;5033428;28;1328;-75
2022/09/27 04:10:17;;;;;;;;;;;;;;;;;;5033522;28;1163;-75
2022/09/27 04:12:45;;;;;;;;;;;;;;;;;;5033195;28;1255;-75
2022/09/27 04:15:11;;;;;;;;;;;;;;;;;;5032972;28;1977;-76
2022/09/27 04:17:49;;;;;;;;;;;;;;;;;;5051217;28;708;-75
2022/09/27 04:20:36;;;;;;;;;;;;;;;;;;5043476;28;1415;-76
2022/09/27 04:23:06;;;;;;;;;;;;;;;;;;5033513;28;1218;-76
2022/09/27 04:25:34;;;;;;;;;;;;;;;;;;5033402;28;1415;-76
2022/09/27 04:28:09;;;;;;;;;;;;;;;;;;5033353;28;1231;-77
2022/09/27 04:30:35;;;;;;;;;;;;;;;;;;5031728;28;1611;-76
2022/09/27 04:33:33;;;;;;;;;;;;;;;;;;5049849;28;1357;-76
2022/09/27 04:39:09;;;;;;;;;;;;;;;;;;4991850;28;2080;-77
2022/09/27 04:41:39;;;;;;;;;;;;;;;;;;5025989;28;1317;-76
2022/09/27 04:44:06;;;;;;;;;;;;;;;;;;5031392;28;1522;-76
2022/09/27 04:46:33;;;;;;;;;;;;;;;;;;5031364;28;1467;-77
2022/09/27 04:48:59;;;;;;;;;;;;;;;;;;5032900;28;1371;-76
2022/09/27 04:51:27;;;;;;;;;;;;;;;;;;5032246;28;1478;-74
2022/09/27 04:53:53;;;;;;;;;;;;;;;;;;5033706;28;1248;-74
2022/09/27 04:56:21;;;;;;;;;;;;;;;;;;5036105;28;1914;-73
2022/09/27 04:58:47;;;;;;;;;;;;;;;;;;5051173;22;3584;-74
2022/09/27 05:01:15;;;;;;;;;;;;;;;;;;5036314;28;1609;-73
2022/09/27 05:03:59;;;;;;;;;;;;;;;;;;5054484;28;628;-74
2022/09/27 05:06:27;;;;;;;;;;;;;;;;;;5036328;28;1540;-74
2022/09/27 05:08:57;;;;;;;;;;;;;;;;;;5054737;28;1360;-74
2022/09/27 05:11:36;;;;;;;;;;;;;;;;;;5055758;28;1428;-74
2022/09/27 05:14:15;;;;;;;;;;;;;;;;;;5052428;28;1918;-74
2022/09/27 05:16:51;;;;;;;;;;;;;;;;;;5032560;28;1504;-73
2022/09/27 05:19:46;;;;;;;;;;;;;;;;;;5035978;28;955;-73
2022/09/27 05:22:18;;;;;;;;;;;;;;;;;;5035431;28;1342;-73
2022/09/27 05:24:44;;;;;;;;;;;;;;;;;;5036027;28;1251;-74
2022/09/27 05:27:11;;;;;;;;;;;;;;;;;;5035716;28;1330;-72
2022/09/27 05:29:38;;;;;;;;;;;;;;;;;;5034921;28;1385;-74
2022/09/27 05:32:16;;;;;;;;;;;;;;;;;;5028002;28;1495;-72
2022/09/27 05:34:44;;;;;;;;;;;;;;;;;;5033560;28;1922;-74
2022/09/27 05:37:10;;;;;;;;;;;;;;;;;;5035552;28;1455;-73
2022/09/27 05:39:39;;;;;;;;;;;;;;;;;;5043284;28;1490;-73
2022/09/27 05:42:09;;;;;;;;;;;;;;;;;;5035198;28;1496;-73
2022/09/27 05:44:37;;;;;;;;;;;;;;;;;;5046887;28;1590;-73
2022/09/27 05:47:04;;;;;;;;;;;;;;;;;;5054991;28;1431;-74
2022/09/27 05:49:32;;;;;;;;;;;;;;;;;;5055278;28;834;-74
2022/09/27 05:51:58;;;;;;;;;;;;;;;;;;5048710;28;1443;-73
2022/09/27 05:54:28;;;;;;;;;;;;;;;;;;5042564;28;1910;-74
2022/09/27 05:56:57;;;;;;;;;;;;;;;;;;5034802;28;1359;-74
2022/09/27 05:59:41;;;;;;;;;;;;;;;;;;5035080;28;1438;-73
2022/09/27 06:02:19;;;;;;;;;;;;;;;;;;5048655;28;961;-73
2022/09/27 06:05:06;;;;;;;;;;;;;;;;;;5052293;28;1080;-73
2022/09/27 06:07:51;;;;;;;;;;;;;;;;;;5052227;28;1437;-73
2022/09/27 06:10:25;;;;;;;;;;;;;;;;;;5036351;28;985;-74
2022/09/27 06:12:51;;;;;;;;;;;;;;;;;;5050351;28;1478;-72
2022/09/27 06:15:31;;;;;;;;;;;;;;;;;;5054921;28;1911;-71
2022/09/27 06:18:02;;;;;;;;;;;;;;;;;;5054748;28;1527;-71
2022/09/27 06:20:30;;;;;;;;;;;;;;;;;;5072438;28;783;-74
2022/09/27 06:22:56;;;;;;;;;;;;;;;;;;5044682;28;1473;-74
2022/09/27 06:25:22;;;;;;;;;;;;;;;;;;5046290;28;1465;-74
2022/09/27 06:28:01;;;;;;;;;;;;;;;;;;5054380;28;1321;-74
2022/09/27 06:30:28;;;;;;;;;;;;;;;;;;5052018;28;1472;-71
2022/09/27 06:32:55;;;;;;;;;;;;;;;;;;5041231;28;1528;-73
2022/09/27 06:35:30;;;;;;;;;;;;;;;;;;5054485;28;1971;-74
2022/09/27 06:37:57;;;;;;;;;;;;;;;;;;5054317;28;1467;-71
2022/09/27 06:40:25;;;;;;;;;;;;;;;;;;5035466;28;1660;-74
2022/09/27 06:43:12;;;;;;;;;;;;;;;;;;5053879;28;1887;-73
2022/09/27 06:46:06;;;;;;;;;;;;;;;;;;5030934;28;1453;-72
2022/09/27 06:48:55;;;;;;;;;;;;;;;;;;5028984;28;1872;-74
2022/09/27 06:51:23;;;;;;;;;;;;;;;;;;5044824;28;1221;-73
2022/09/27 06:53:49;;;;;;;;;;;;;;;;;;5053552;28;1131;-71
2022/09/27 06:56:16;;;;;;;;;;;;;;;;;;5053189;28;1961;-72
2022/09/27 07:01:56;;;;;;;;;;;;;;;;;;5020128;28;1304;-72
2022/09/27 07:04:49;;;;;;;;;;;;;;;;;;5059487;28;1476;-72
2022/09/27 07:07:29;;;;;;;;;;;;;;;;;;5046469;28;1489;-73
2022/09/27 07:09:55;;;;;;;;;;;;;;;;;;5044998;28;1272;-72
2022/09/27 07:12:25;;;;;;;;;;;;;;;;;;5043435;28;1414;-71
2022/09/27 07:14:53;;;;;;;;;;;;;;;;;;5036280;28;1914;-73
2022/09/27 07:17:19;;;;;;;;;;;;;;;;;;5044619;28;1427;-72
2022/09/27 07:19:47;;;;;;;;;;;;;;;;;;5052828;28;1109;-72
2022/09/27 07:22:14;;;;;;;;;;;;;;;;;;5033281;28;1471;-71
2022/09/27 07:24:44;;;;;;;;;;;;;;;;;;5040446;28;1545;-72
2022/09/27 07:27:11;;;;;;;;;;;;;;;;;;5051324;28;1574;-72
2022/09/27 07:29:37;;;;;;;;;;;;;;;;;;5053010;28;1204;-71
2022/09/27 07:32:04;;;;;;;;;;;;;;;;;;5057449;28;1409;-72
2022/09/27 07:34:30;;;;;;;;;;;;;;;;;;5037215;28;1652;-72
2022/09/27 07:36:58;;;;;;;;;;;;;;;;;;5035067;28;1995;-72
2022/09/27 07:39:24;;;;;;;;;;;;;;;;;;5057747;28;1491;-72
2022/09/27 07:41:52;;;;;;;;;;;;;;;;;;5040605;28;1142;-72
2022/09/27 07:44:19;;;;;;;;;;;;;;;;;;5052466;28;1263;-71
2022/09/27 07:47:06;;;;;;;;;;;;;;;;;;5070551;28;1400;-73
2022/09/27 07:49:52;;;;;;;;;;;;;;;;;;5062728;28;1425;-72
2022/09/27 07:52:38;;;;;;;;;;;;;;;;;;5058502;28;1099;-72
2022/09/27 07:55:18;;;;;;;;;;;;;;;;;;5032012;28;1886;-71
2022/09/27 07:58:03;;;;;;;;;;;;;;;;;;5038598;28;1430;-71
2022/09/27 08:00:29;;;;;;;;;;;;;;;;;;5052720;28;1377;-71
2022/09/27 08:02:56;;;;;;;;;;;;;;;;;;5052496;28;1229;-72
2022/09/27 08:05:22;;;;;;;;;;;;;;;;;;5049579;28;1441;-71
2022/09/27 08:07:53;;;;;;;;;;;;;;;;;;5040787;28;1530;-72
2022/09/27 08:10:19;;;;;;;;;;;;;;;;;;5049278;28;1452;-71
2022/09/27 08:12:46;;;;;;;;;;;;;;;;;;5056435;28;1436;-72
2022/09/27 08:15:14;;;;;;;;;;;;;;;;;;5043745;28;1910;-72
2022/09/27 08:17:40;;;;;;;;;;;;;;;;;;5040297;28;1439;-72
2022/09/27 08:20:13;;;;;;;;;;;;;;;;;;5047880;28;1581;-72
2022/09/27 08:22:52;;;;;;;;;;;;;;;;;;5043659;28;1321;-72
2022/09/27 08:25:29;;;;;;;;;;;;;;;;;;5050144;28;1476;-72
2022/09/27 08:28:04;;;;;;;;;;;;;;;;;;5035168;28;1470;-72
2022/09/27 08:30:44;;;;;;;;;;;;;;;;;;5048102;28;1541;-72
2022/09/27 08:33:11;;;;;;;;;;;;;;;;;;5051048;28;1491;-73
2022/09/27 08:35:37;;;;;;;;;;;;;;;;;;5046618;28;1973;-72
2022/09/27 08:38:05;;;;;;;;;;;;;;;;;;5041366;28;1471;-72
2022/09/27 08:40:37;;;;;;;;;;;;;;;;;;5036290;28;1332;-72
2022/09/27 08:43:06;;;;;;;;;;;;;;;;;;5036230;28;1567;-72
2022/09/27 08:45:33;;;;;;;;;;;;;;;;;;5043145;28;1736;-72
2022/09/27 08:48:01;;;;;;;;;;;;;;;;;;5039983;28;1415;-72
2022/09/27 08:50:29;;;;;;;;;;;;;;;;;;5035188;28;1587;-74
2022/09/27 08:53:00;;;;;;;;;;;;;;;;;;5043167;28;1600;-73
2022/09/27 08:55:28;;;;;;;;;;;;;;;;;;5043763;28;1891;-74
2022/09/27 08:57:55;;;;;;;;;;;;;;;;;;5035452;28;1325;-73
2022/09/27 09:00:22;;;;;;;;;;;;;;;;;;5035069;28;1477;-74
2022/09/27 09:02:49;;;;;;;;;;;;;;;;;;5029846;28;1401;-74
2022/09/27 09:05:17;;;;;;;;;;;;;;;;;;5016177;28;1448;-74
2022/09/27 09:07:43;;;;;;;;;;;;;;;;;;5032957;28;1599;-73
2022/09/27 09:10:09;;;;;;;;;;;;;;;;;;5047904;28;1191;-74
2022/09/27 09:12:47;;;;;;;;;;;;;;;;;;5047847;28;1553;-73
2022/09/27 09:15:22;;;;;;;;;;;;;;;;;;5054861;28;1188;-74
2022/09/27 09:17:57;;;;;;;;;;;;;;;;;;5038337;28;1420;-73
2022/09/27 09:20:50;;;;;;;;;;;;;;;;;;5056387;28;1180;-74
2022/09/27 09:23:45;;;;;;;;;;;;;;;;;;5035140;28;1191;-74
2022/09/27 09:26:12;;;;;;;;;;;;;;;;;;4979198;28;1500;-73
2022/09/27 09:28:42;;;;;;;;;;;;;;;;;;5043626;28;1408;-73
2022/09/27 09:31:10;;;;;;;;;;;;;;;;;;5041945;28;1659;-73
2022/09/27 09:33:36;;;;;;;;;;;;;;;;;;5040180;28;1547;-72
2022/09/27 09:36:05;;;;;;;;;;;;;;;;;;5060894;28;1973;-73
2022/09/27 09:38:34;;;;;;;;;;;;;;;;;;5032420;28;1415;-73
2022/09/27 09:41:02;;;;;;;;;;;;;;;;;;5057959;28;1467;-74
2022/09/27 09:43:30;;;;;;;;;;;;;;;;;;5047802;28;1675;-73
2022/09/27 09:45:58;;;;;;;;;;;;;;;;;;5054735;28;1505;-73
2022/09/27 09:48:27;;;;;;;;;;;;;;;;;;5059041;28;1545;-73
2022/09/27 09:50:54;;;;;;;;;;;;;;;;;;5048878;28;1267;-73
2022/09/27 09:53:23;;;;;;;;;;;;;;;;;;5041800;28;1416;-73
2022/09/27 09:55:52;;;;;;;;;;;;;;;;;;5050725;28;1968;-73
2022/09/27 09:58:20;;;;;;;;;;;;;;;;;;5044896;28;1483;-74
2022/09/27 10:00:50;;;;;;;;;;;;;;;;;;5042223;28;1360;-74
2022/09/27 10:03:16;;;;;;;;;;;;;;;;;;5034559;28;1228;-74
2022/09/27 10:05:44;;;;;;;;;;;;;;;;;;5032276;28;2043;-74
2022/09/27 10:08:13;;;;;;;;;;;;;;;;;;5035815;28;1832;-74
2022/09/27 10:10:40;;;;;;;;;;;;;;;;;;5045835;28;1167;-74
2022/09/27 10:13:27;;;;;;;;;;;;;;;;;;5063307;28;1404;-73
2022/09/27 10:16:01;;;;;;;;;;;;;;;;;;5051188;28;1910;-73
2022/09/27 10:18:27;;;;;;;;;;;;;;;;;;5065938;28;1399;-73
2022/09/27 10:20:55;;;;;;;;;;;;;;;;;;5046982;28;1438;-73
2022/09/27 10:23:24;;;;;;;;;;;;;;;;;;5033631;28;1493;-74
2022/09/27 10:26:13;;;;;;;;;;;;;;;;;;5036993;28;1755;-74
2022/09/27 10:28:45;;;;;;;;;;;;;;;;;;5034188;28;1502;-74
2022/09/27 10:31:13;;;;;;;;;;;;;;;;;;5033697;28;1466;-73
2022/09/27 10:33:51;;;;;;;;;;;;;;;;;;5046595;28;1735;-73
2022/09/27 10:36:22;;;;;;;;;;;;;;;;;;5038663;28;1914;-73
2022/09/27 10:38:51;;;;;;;;;;;;;;;;;;5038500;28;1468;-73
2022/09/27 10:41:31;;;;;;;;;;;;;;;;;;5029760;28;1381;-74
2022/09/27 10:44:19;;;;;;;;;;;;;;;;;;5041144;28;1480;-74
2022/09/27 10:46:50;;;;;;;;;;;;;;;;;;5042298;28;1474;-73
2022/09/27 10:49:31;;;;;;;;;;;;;;;;;;5042109;28;1474;-72
2022/09/27 10:52:00;;;;;;;;;;;;;;;;;;5032733;28;1525;-72
2022/09/27 10:54:27;;;;;;;;;;;;;;;;;;5045356;28;1369;-72
2022/09/27 10:56:56;;;;;;;;;;;;;;;;;;5052099;28;1938;-72
2022/09/27 10:59:23;;;;;;;;;;;;;;;;;;5051817;23;3730;-75
2022/09/27 11:01:49;;;;;;;;;;;;;;;;;;5031829;28;1328;-75
2022/09/27 11:04:20;;;;;;;;;;;;;;;;;;5032776;28;1193;-75
2022/09/27 11:06:46;;;;;;;;;;;;;;;;;;5033371;28;912;-76
2022/09/27 11:09:18;;;;;;;;;;;;;;;;;;5033593;28;1412;-75
2022/09/27 11:11:46;;;;;;;;;;;;;;;;;;5033042;28;1357;-75
2022/09/27 11:14:19;;;;;;;;;;;;;;;;;;5033578;28;1273;-75
2022/09/27 11:16:50;;;;;;;;;;;;;;;;;;5028136;28;1914;-75
2022/09/27 11:19:22;;;;;;;;;;;;;;;;;;5031741;28;1515;-76
2022/09/27 11:21:50;;;;;;;;;;;;;;;;;;5032135;28;1586;-76
2022/09/27 11:24:20;;;;;;;;;;;;;;;;;;5033084;28;1395;-75
2022/09/27 11:26:49;;;;;;;;;;;;;;;;;;5031555;28;1566;-75
2022/09/27 11:29:20;;;;;;;;;;;;;;;;;;5050512;28;1458;-75
2022/09/27 11:32:10;;;;;;;;;;;;;;;;;;5050641;28;1201;-75
2022/09/27 11:34:43;;;;;;;;;;;;;;;;;;5033069;28;1473;-75
2022/09/27 11:37:12;;;;;;;;;;;;;;;;;;5032413;28;1910;-75
2022/09/27 11:39:43;;;;;;;;;;;;;;;;;;5032432;28;1732;-75
2022/09/27 11:42:13;;;;;;;;;;;;;;;;;;5032492;28;1303;-75
2022/09/27 11:44:48;;;;;;;;;;;;;;;;;;5032550;28;1475;-75
2022/09/27 11:47:16;;;;;;;;;;;;;;;;;;5032226;28;1473;-74
2022/09/27 11:49:49;;;;;;;;;;;;;;;;;;5031758;28;1554;-76
2022/09/27 11:52:18;;;;;;;;;;;;;;;;;;5031408;28;1386;-75
2022/09/27 11:54:50;;;;;;;;;;;;;;;;;;5031889;28;1379;-77
2022/09/27 11:57:19;;;;;;;;;;;;;;;;;;5032575;28;1910;-76
2022/09/27 11:59:51;;;;;;;;;;;;;;;;;;5032035;28;1411;-75
2022/09/27 12:02:22;;;;;;;;;;;;;;;;;;5015262;28;1561;-77
2022/09/27 12:04:51;;;;;;;;;;;;;;;;;;5025300;28;1645;-76
2022/09/27 12:07:22;;;;;;;;;;;;;;;;;;5032032;28;1573;-75
2022/09/27 12:09:49;;;;;;;;;;;;;;;;;;5032081;28;1601;-75
2022/09/27 12:12:17;;;;;;;;;;;;;;;;;;5030736;28;1478;-76
2022/09/27 12:14:44;;;;;;;;;;;;;;;;;;5031381;28;1495;-75
2022/09/27 12:17:15;;;;;;;;;;;;;;;;;;5024585;28;1972;-75
2022/09/27 12:19:44;;;;;;;;;;;;;;;;;;5028663;28;1907;-75
2022/09/27 12:22:16;;;;;;;;;;;;;;;;;;5031539;28;1623;-75
2022/09/27 12:24:45;;;;;;;;;;;;;;;;;;5032549;28;1203;-74
2022/09/27 12:27:39;;;;;;;;;;;;;;;;;;5040783;28;1500;-75
2022/09/27 12:30:11;;;;;;;;;;;;;;;;;;5031316;28;1444;-75
2022/09/27 12:32:43;;;;;;;;;;;;;;;;;;5031988;28;1165;-75
2022/09/27 12:35:13;;;;;;;;;;;;;;;;;;5032267;28;1287;-75
2022/09/27 12:37:40;;;;;;;;;;;;;;;;;;5023868;28;1918;-74
2022/09/27 12:40:09;;;;;;;;;;;;;;;;;;5028955;28;1774;-74
2022/09/27 12:42:38;;;;;;;;;;;;;;;;;;5039897;28;1267;-74
2022/09/27 12:45:13;;;;;;;;;;;;;;;;;;5032174;28;1529;-75
2022/09/27 12:47:53;;;;;;;;;;;;;;;;;;5032347;28;1328;-75
2022/09/27 12:50:22;;;;;;;;;;;;;;;;;;5023506;28;1438;-75
2022/09/27 12:52:50;;;;;;;;;;;;;;;;;;5031917;28;1335;-74
2022/09/27 12:55:21;;;;;;;;;;;;;;;;;;5032342;28;1545;-74
2022/09/27 12:57:49;;;;;;;;;;;;;;;;;;5031036;28;1914;-73
2022/09/27 13:00:19;;;;;;;;;;;;;;;;;;5032510;28;1336;-75
2022/09/27 13:02:51;;;;;;;;;;;;;;;;;;5031068;28;1566;-75
2022/09/27 13:05:27;;;;;;;;;;;;;;;;;;5043921;28;1541;-75
2022/09/27 13:08:10;;;;;;;;;;;;;;;;;;5048188;28;1473;-76
2022/09/27 13:10:40;;;;;;;;;;;;;;;;;;5030169;28;1444;-76
2022/09/27 13:13:21;;;;;;;;;;;;;;;;;;5029519;28;1501;-75
2022/09/27 13:15:48;;;;;;;;;;;;;;;;;;5032851;28;1533;-75
2022/09/27 13:18:45;;;;;;;;;;;;;;;;;;5034843;28;1993;-75
2022/09/27 13:21:14;;;;;;;;;;;;;;;;;;5050890;28;1781;-74
2022/09/27 13:23:50;;;;;;;;;;;;;;;;;;5035490;28;1626;-75
2022/09/27 13:26:21;;;;;;;;;;;;;;;;;;5035177;28;1570;-75
2022/09/27 13:29:00;;;;;;;;;;;;;;;;;;5035427;28;1538;-75
2022/09/27 13:31:51;;;;;;;;;;;;;;;;;;5028110;28;1476;-74
2022/09/27 13:34:36;;;;;;;;;;;;;;;;;;5051547;28;1138;-74
2022/09/27 13:37:18;;;;;;;;;;;;;;;;;;5024119;28;1977;-74
2022/09/27 13:39:46;;;;;;;;;;;;;;;;;;5028513;28;1484;-75
2022/09/27 13:42:34;;;;;;;;;;;;;;;;;;5035245;28;967;-75
2022/09/27 13:45:07;;;;;;;;;;;;;;;;;;5034970;28;1353;-75
2022/09/27 13:47:36;;;;;;;;;;;;;;;;;;5035121;28;1376;-74
2022/09/27 13:50:13;;;;;;;;;;;;;;;;;;5033095;28;1436;-75
2022/09/27 13:52:46;;;;;;;;;;;;;;;;;;5034170;28;1810;-75
2022/09/27 13:55:41;;;;;;;;;;;;;;;;;;5051234;28;1176;-74
2022/09/27 13:58:12;;;;;;;;;;;;;;;;;;5029524;28;1914;-74
2022/09/27 14:00:39;;;;;;;;;;;;;;;;;;5045550;28;1492;-75
2022/09/27 14:03:06;;;;;;;;;;;;;;;;;;5034490;28;1231;-75
2022/09/27 14:05:35;;;;;;;;;;;;;;;;;;5045338;28;1571;-75
2022/09/27 14:08:02;;;;;;;;;;;;;;;;;;5045333;28;1365;-75
2022/09/27 14:10:28;;;;;;;;;;;;;;;;;;5038574;28;1600;-74
2022/09/27 14:12:57;;;;;;;;;;;;;;;;;;5032655;28;1409;-75
2022/09/27 14:15:24;;;;;;;;;;;;;;;;;;5032191;28;1484;-74
2022/09/27 14:17:52;;;;;;;;;;;;;;;;;;5034531;28;1918;-75
2022/09/27 14:20:31;;;;;;;;;;;;;;;;;;5033760;28;1554;-75
2022/09/27 14:22:58;;;;;;;;;;;;;;;;;;5050392;28;1688;-72
2022/09/27 14:25:29;;;;;;;;;;;;;;;;;;5050983;28;1668;-73
2022/09/27 14:27:59;;;;;;;;;;;;;;;;;;5033504;28;1338;-73
2022/09/27 14:30:35;;;;;;;;;;;;;;;;;;5027928;28;1485;-74
2022/09/27 14:33:28;;;;;;;;;;;;;;;;;;5037035;28;1142;-74
2022/09/27 14:38:40;;;;;;;;;;;;;;;;;;5032140;28;1918;-74
2022/09/27 14:41:16;;;;;;;;;;;;;;;;;;5033417;28;1214;-76
2022/09/27 14:43:45;;;;;;;;;;;;;;;;;;5051937;28;1128;-74
2022/09/27 14:46:23;;;;;;;;;;;;;;;;;;5033832;28;1254;-74
2022/09/27 14:48:50;;;;;;;;;;;;;;;;;;5032749;28;1430;-75
2022/09/27 14:51:18;;;;;;;;;;;;;;;;;;5050301;28;1429;-75
2022/09/27 14:53:45;;;;;;;;;;;;;;;;;;5051678;28;1419;-75
2022/09/27 14:56:11;;;;;;;;;;;;;;;;;;5050839;28;1424;-75
2022/09/27 14:58:38;;;;;;;;;;;;;;;;;;5051323;28;1918;-76
2022/09/27 15:01:05;;;;;;;;;;;;;;;;;;5051607;28;851;-75
2022/09/27 15:03:33;;;;;;;;;;;;;;;;;;5032379;28;1422;-74
2022/09/27 15:06:00;;;;;;;;;;;;;;;;;;5050175;28;1369;-75
2022/09/27 15:08:29;;;;;;;;;;;;;;;;;;5033170;28;1485;-75
2022/09/27 15:10:55;;;;;;;;;;;;;;;;;;5031434;28;1509;-75
2022/09/27 15:13:21;;;;;;;;;;;;;;;;;;5049801;28;1262;-74
2022/09/27 15:15:48;;;;;;;;;;;;;;;;;;5048547;28;1358;-75
2022/09/27 15:18:38;;;;;;;;;;;;;;;;;;5050913;28;1910;-75
2022/09/27 15:21:06;;;;;;;;;;;;;;;;;;5011286;28;1054;-75
2022/09/27 15:23:34;;;;;;;;;;;;;;;;;;5030849;28;1116;-75
2022/09/27 15:26:03;;;;;;;;;;;;;;;;;;5030749;28;977;-75
2022/09/27 15:28:29;;;;;;;;;;;;;;;;;;5044879;28;1333;-75
2022/09/27 15:30:56;;;;;;;;;;;;;;;;;;5043484;28;1590;-75
2022/09/27 15:33:23;;;;;;;;;;;;;;;;;;5050910;28;1186;-75
2022/09/27 15:35:51;;;;;;;;;;;;;;;;;;5032485;28;1405;-75
2022/09/27 15:38:27;;;;;;;;;;;;;;;;;;5049736;28;1914;-74
2022/09/27 15:41:04;;;;;;;;;;;;;;;;;;5050953;28;1189;-75
2022/09/27 15:43:31;;;;;;;;;;;;;;;;;;5050335;28;1108;-75
2022/09/27 15:46:00;;;;;;;;;;;;;;;;;;5049295;28;1381;-75
2022/09/27 15:48:27;;;;;;;;;;;;;;;;;;5043589;28;1492;-74
2022/09/27 15:50:53;;;;;;;;;;;;;;;;;;5047802;28;1370;-76
2022/09/27 15:53:38;;;;;;;;;;;;;;;;;;5032501;28;1292;-71
2022/09/27 15:56:06;;;;;;;;;;;;;;;;;;5049140;28;1345;-75
2022/09/27 15:58:32;;;;;;;;;;;;;;;;;;5047540;28;1993;-73
2022/09/27 16:01:01;;;;;;;;;;;;;;;;;;5048149;28;1322;-74
2022/09/27 16:03:27;;;;;;;;;;;;;;;;;;5045810;28;1585;-75
2022/09/27 16:05:54;;;;;;;;;;;;;;;;;;5051204;28;945;-75
2022/09/27 16:08:21;;;;;;;;;;;;;;;;;;5040105;28;1404;-75
2022/09/27 16:10:48;;;;;;;;;;;;;;;;;;5031935;28;1416;-74
2022/09/27 16:13:16;;;;;;;;;;;;;;;;;;5050926;28;1114;-74
2022/09/27 16:15:42;;;;;;;;;;;;;;;;;;5050124;28;1472;-75
2022/09/27 16:18:09;;;;;;;;;;;;;;;;;;5047518;28;1907;-73
2022/09/27 16:20:35;;;;;;;;;;;;;;;;;;5032495;28;1405;-74
2022/09/27 16:23:01;;;;;;;;;;;;;;;;;;5050727;28;1274;-74
2022/09/27 16:25:28;;;;;;;;;;;;;;;;;;5050928;28;1107;-74
2022/09/27 16:27:56;;;;;;;;;;;;;;;;;;5051444;28;1400;-74
2022/09/27 16:30:24;;;;;;;;;;;;;;;;;;5060103;28;1335;-75
2022/09/27 16:32:50;;;;;;;;;;;;;;;;;;5061271;28;1340;-74
2022/09/27 16:35:17;;;;;;;;;;;;;;;;;;5053276;28;1371;-75
2022/09/27 16:37:44;;;;;;;;;;;;;;;;;;5047417;28;1985;-75
2022/09/27 16:40:11;;;;;;;;;;;;;;;;;;5048540;28;1414;-75
2022/09/27 16:42:37;;;;;;;;;;;;;;;;;;5047897;28;1184;-74
2022/09/27 16:45:04;;;;;;;;;;;;;;;;;;5048373;28;1327;-75
2022/09/27 16:47:32;;;;;;;;;;;;;;;;;;5043830;28;1383;-74
2022/09/27 16:52:46;;;;;;;;;;;;;;;;;;5052286;28;968;-75
2022/09/27 16:55:12;;;;;;;;;;;;;;;;;;5047384;28;1713;-74
2022/09/27 16:57:38;;;;;;;;;;;;;;;;;;5041305;28;1509;-75
2022/09/27 17:00:05;;;;;;;;;;;;;;;;;;5040177;28;1910;-75
2022/09/27 17:02:33;;;;;;;;;;;;;;;;;;5050314;28;1352;-75
2022/09/27 17:05:00;;;;;;;;;;;;;;;;;;5049954;28;1300;-75
2022/09/27 17:07:26;;;;;;;;;;;;;;;;;;5038883;28;1049;-75
2022/09/27 17:09:52;;;;;;;;;;;;;;;;;;5051440;28;1432;-75
2022/09/27 17:12:18;;;;;;;;;;;;;;;;;;5047288;28;1328;-74
2022/09/27 17:14:44;;;;;;;;;;;;;;;;;;5046048;28;1438;-75
2022/09/27 17:17:10;;;;;;;;;;;;;;;;;;5051992;28;1178;-75
2022/09/27 17:19:38;;;;;;;;;;;;;;;;;;5048956;28;1969;-75
2022/09/27 17:22:06;;;;;;;;;;;;;;;;;;5050224;28;1397;-75
2022/09/27 17:24:32;;;;;;;;;;;;;;;;;;5051759;28;1102;-75
2022/09/27 17:26:58;;;;;;;;;;;;;;;;;;5033694;28;1154;-75
2022/09/27 17:29:24;;;;;;;;;;;;;;;;;;5051947;28;1325;-75
2022/09/27 17:31:51;;;;;;;;;;;;;;;;;;5050072;28;1393;-74
2022/09/27 17:34:17;;;;;;;;;;;;;;;;;;5046624;28;1594;-74
2022/09/27 17:36:47;;;;;;;;;;;;;;;;;;5051416;28;1114;-75
2022/09/27 17:39:13;;;;;;;;;;;;;;;;;;5046742;28;1926;-73
2022/09/27 17:41:39;;;;;;;;;;;;;;;;;;5051039;28;1445;-75